Time;durP1;ratioP1;P1;durP2;ratioP2;P2;SDS_P1;SDS_P2;PMS_P1;PMS_P2;Temp;Humidity;BMP_temperature;BMP_pressure;BME280_temperature;BME280_humidity;BME280_pressure;Samples;Min_cycle;Max_cycle;Signal;HPM_P1;HPM_P2
2023/09/27 00:00:51;;;;;;;17.38;15.65;;;15.20;80.80;;;14.10;100.00;96484.41;6061455;23;20453;-62
2023/09/27 00:03:17;;;;;;;17.02;14.82;;;15.20;81.20;;;14.09;100.00;96482.78;6082582;23;20019;-62
2023/09/27 00:05:42;;;;;;;15.75;14.15;;;15.10;81.20;;;14.06;100.00;96483.19;6060561;23;20031;-62
2023/09/27 00:08:11;;;;;;;15.90;14.25;;;15.10;81.80;;;14.07;100.00;96479.50;6083259;23;20019;-62
2023/09/27 00:10:36;;;;;;;16.10;14.40;;;15.20;81.50;;;14.07;100.00;96484.00;6083130;23;20066;-62
2023/09/27 00:13:02;;;;;;;16.80;13.48;;;15.10;81.70;;;14.04;100.00;96479.91;6059149;23;20010;-62
2023/09/27 00:15:28;;;;;;;15.70;14.10;;;15.10;81.60;;;14.03;100.00;96472.16;6059547;23;20023;-62
2023/09/27 00:17:54;;;;;;;16.10;14.23;;;15.10;81.40;;;14.00;100.00;96478.66;6060394;23;20018;-62
2023/09/27 00:20:20;;;;;;;14.55;13.10;;;15.10;81.50;;;13.99;100.00;96477.03;6058764;23;20089;-62
2023/09/27 00:22:46;;;;;;;15.40;13.80;;;15.10;81.60;;;13.97;100.00;96475.63;6034891;23;20021;-62
2023/09/27 00:25:12;;;;;;;14.93;13.35;;;15.00;81.80;;;13.94;100.00;96476.00;6083429;23;20015;-62
2023/09/27 00:27:38;;;;;;;15.52;13.77;;;15.00;81.80;;;13.93;100.00;96472.56;6059191;23;20035;-62
2023/09/27 00:30:07;;;;;;;15.02;13.50;;;15.00;81.70;;;13.92;100.00;96470.94;6058779;23;20041;-62
2023/09/27 00:32:33;;;;;;;10.90;9.80;;;15.00;82.00;;;13.90;100.00;96472.16;6059205;23;20466;-62
2023/09/27 00:34:59;;;;;;;17.23;12.40;;;15.00;81.60;;;13.90;100.00;96472.97;6059200;23;20010;-62
2023/09/27 00:37:25;;;;;;;16.05;12.98;;;15.00;81.60;;;13.87;100.00;96472.56;6083377;23;20013;-62
2023/09/27 00:39:51;;;;;;;14.05;12.27;;;14.90;81.50;;;13.85;100.00;96470.09;6061229;23;20346;-62
2023/09/27 00:42:17;;;;;;;13.27;11.98;;;14.90;81.30;;;13.83;100.00;96471.31;6083101;23;20365;-62
2023/09/27 00:44:43;;;;;;;14.57;12.50;;;14.90;81.30;;;13.81;100.00;96463.59;6058810;23;20463;-62
2023/09/27 00:47:09;;;;;;;14.10;11.70;;;14.90;81.50;;;13.79;100.00;96468.25;6058892;23;20074;-62
2023/09/27 00:49:35;;;;;;;14.10;12.55;;;14.90;81.50;;;13.77;100.00;96462.34;6035635;23;20002;-62
2023/09/27 00:52:01;;;;;;;14.55;12.95;;;14.80;81.40;;;13.76;100.00;96466.81;6083491;23;20010;-61
2023/09/27 00:54:27;;;;;;;14.32;12.85;;;14.90;81.80;;;13.75;100.00;96464.38;6061830;23;20023;-62
2023/09/27 00:56:52;;;;;;;15.02;12.88;;;14.80;81.90;;;13.73;100.00;96461.94;6061390;23;20022;-62
2023/09/27 00:59:18;;;;;;;13.60;12.27;;;14.80;81.70;;;13.73;100.00;96461.13;6038551;23;20394;-62
2023/09/27 01:01:45;;;;;;;15.80;12.43;;;14.80;82.00;;;13.71;100.00;96460.50;6038416;23;20011;-61
2023/09/27 01:04:13;;;;;;;14.82;13.23;;;14.80;81.90;;;13.68;100.00;96461.72;6062598;23;20029;-62
2023/09/27 01:06:39;;;;;;;15.75;14.05;;;14.80;82.00;;;13.67;100.00;96459.28;6061953;23;20039;-62
2023/09/27 01:09:05;;;;;;;14.02;12.50;;;14.80;82.30;;;13.66;100.00;96460.28;6038031;23;20014;-62
2023/09/27 01:11:30;;;;;;;16.33;13.70;;;14.70;82.90;;;13.65;100.00;96448.09;6064316;23;20066;-62
2023/09/27 01:13:56;;;;;;;14.05;12.55;;;14.70;83.00;;;13.63;100.00;96455.41;6085792;23;20397;-62
2023/09/27 01:16:22;;;;;;;15.27;12.77;;;14.80;82.80;;;13.63;100.00;96460.69;6062528;23;20089;-62
2023/09/27 01:18:48;;;;;;;14.07;12.68;;;14.70;82.90;;;13.60;100.00;96463.75;6087257;23;20378;-62
2023/09/27 01:21:18;;;;;;;15.10;12.75;;;14.70;82.90;;;13.60;100.00;96467.19;6061725;23;20528;-62
2023/09/27 01:23:46;;;;;;;16.25;12.75;;;14.70;82.70;;;13.58;100.00;96455.16;6085743;23;20465;-62
2023/09/27 01:26:11;;;;;;;15.52;13.13;;;14.70;82.70;;;13.57;100.00;96450.91;6062337;23;20022;-62
2023/09/27 01:28:37;;;;;;;15.10;12.27;;;14.70;83.00;;;13.55;100.00;96458.22;6062753;23;20018;-62
2023/09/27 01:31:03;;;;;;;14.73;12.50;;;14.60;83.50;;;13.52;100.00;96448.84;6086731;23;20015;-62
2023/09/27 01:33:28;;;;;;;14.60;12.75;;;14.60;83.40;;;13.51;100.00;96441.13;6086198;23;20022;-61
2023/09/27 01:35:57;;;;;;;14.02;12.30;;;14.60;83.30;;;13.48;100.00;96447.63;6063751;23;20071;-62
2023/09/27 01:38:23;;;;;;;13.10;11.48;;;14.60;83.10;;;13.47;100.00;96446.00;6086227;23;20023;-62
2023/09/27 01:40:48;;;;;;;14.02;12.52;;;14.60;82.80;;;13.45;100.00;96445.38;6063820;23;20015;-61
2023/09/27 01:43:16;;;;;;;13.23;11.85;;;14.60;82.40;;;13.45;100.00;96438.28;6038848;23;20349;-62
2023/09/27 01:45:42;;;;;;;14.50;11.95;;;14.60;82.30;;;13.40;100.00;96435.41;6061406;23;20304;-62
2023/09/27 01:48:08;;;;;;;13.45;12.15;;;14.60;82.30;;;13.36;100.00;96434.19;6061330;23;20034;-62
2023/09/27 01:50:34;;;;;;;13.13;11.35;;;14.50;82.40;;;13.33;100.00;96425.81;6063559;23;20587;-62
2023/09/27 01:53:00;;;;;;;13.63;12.07;;;14.40;82.50;;;13.29;100.00;96428.03;6085418;23;20010;-62
2023/09/27 01:55:26;;;;;;;14.77;11.10;;;14.40;82.60;;;13.26;100.00;96423.16;6038126;23;20015;-62
2023/09/27 01:57:52;;;;;;;14.20;12.27;;;14.40;82.70;;;13.24;100.00;96430.47;6038368;23;20019;-62
2023/09/27 02:00:19;;;;;;;14.48;10.90;;;14.30;82.60;;;13.23;100.00;96436.75;6062320;23;20025;-62
2023/09/27 02:02:50;;;;;;;13.70;11.30;;;14.40;82.30;;;13.21;100.00;96438.78;6085957;23;20733;-62
2023/09/27 02:05:16;;;;;;;12.27;10.82;;;14.30;82.00;;;13.20;100.00;96431.88;6083819;23;20465;-62
2023/09/27 02:07:42;;;;;;;11.93;10.73;;;14.40;81.90;;;13.21;100.00;96435.34;6036638;23;20010;-64
2023/09/27 02:10:09;;;;;;;13.48;11.02;;;14.30;82.20;;;13.18;100.00;96425.97;6084938;23;20007;-61
2023/09/27 02:12:36;;;;;;;13.35;11.10;;;14.30;82.20;;;13.15;100.00;96429.00;6060348;23;20019;-62
2023/09/27 02:15:04;;;;;;;12.85;11.48;;;14.30;82.10;;;13.12;100.00;96432.00;6060257;23;20022;-62
2023/09/27 02:17:29;;;;;;;12.38;10.48;;;14.20;82.10;;;13.11;100.00;96425.09;6060162;23;20065;-62
2023/09/27 02:19:55;;;;;;;12.63;11.10;;;14.20;82.20;;;13.09;100.00;96433.22;6059560;23;20023;-61
2023/09/27 02:22:21;;;;;;;15.15;12.18;;;14.20;82.00;;;13.07;100.00;96431.78;6084207;23;20433;-62
2023/09/27 02:24:47;;;;;;;13.05;11.65;;;14.20;82.10;;;13.04;100.00;96435.63;6036864;23;20015;-62
2023/09/27 02:27:14;;;;;;;14.68;11.23;;;14.20;82.00;;;13.03;100.00;96441.91;6036226;23;20023;-63
2023/09/27 02:29:41;;;;;;;12.93;11.52;;;14.10;81.90;;;12.98;100.00;96440.88;6084198;23;20023;-62
2023/09/27 02:32:07;;;;;;;13.65;12.23;;;14.10;82.00;;;12.95;100.00;96443.91;6083944;23;20046;-62
2023/09/27 02:34:33;;;;;;;15.27;11.63;;;14.10;82.20;;;12.93;100.00;96448.59;6059919;23;20063;-62
2023/09/27 02:36:59;;;;;;;12.77;11.48;;;14.10;82.20;;;12.89;100.00;96441.03;6084823;23;20006;-62
2023/09/27 02:39:25;;;;;;;13.05;11.80;;;14.00;82.20;;;12.87;100.00;96429.84;6061953;23;20098;-62
2023/09/27 02:41:51;;;;;;;11.95;10.73;;;14.00;82.30;;;12.85;100.00;96425.78;6084000;23;20422;-62
2023/09/27 02:44:17;;;;;;;13.43;11.35;;;14.00;82.40;;;12.82;100.00;96426.16;6083712;23;20014;-62
2023/09/27 02:46:44;;;;;;;12.20;10.88;;;14.00;82.60;;;12.80;100.00;96428.19;6082966;23;20030;-63
2023/09/27 02:49:10;;;;;;;14.45;11.52;;;13.90;82.60;;;12.78;100.00;96425.75;6036836;23;20006;-63
2023/09/27 02:51:37;;;;;;;12.80;11.40;;;14.00;82.60;;;12.75;100.00;96428.78;6060348;23;20022;-67
2023/09/27 02:54:03;;;;;;;12.73;11.07;;;13.90;82.40;;;12.74;100.00;96435.06;6083569;23;20031;-64
2023/09/27 02:56:28;;;;;;;14.77;10.93;;;13.90;82.30;;;12.74;100.00;96440.34;6083452;23;20015;-62
2023/09/27 02:58:54;;;;;;;12.48;10.30;;;14.00;82.20;;;12.72;100.00;96431.81;6084002;23;20029;-62
2023/09/27 03:01:20;;;;;;;13.75;10.98;;;13.90;82.20;;;12.71;100.00;96435.47;6083452;23;20348;-62
2023/09/27 03:03:46;;;;;;;13.90;10.95;;;13.90;82.30;;;12.68;100.00;96430.56;6084229;23;20014;-62
2023/09/27 03:06:15;;;;;;;13.95;11.65;;;13.90;82.00;;;12.66;100.00;96435.19;6083380;23;20038;-62
2023/09/27 03:08:43;;;;;;;12.70;11.18;;;13.80;82.10;;;12.65;100.00;96449.41;6036144;23;20397;-62
2023/09/27 03:11:09;;;;;;;14.00;10.95;;;13.80;82.20;;;12.62;100.00;96448.97;6083414;23;20007;-62
2023/09/27 03:13:36;;;;;;;13.50;12.10;;;13.70;82.30;;;12.60;100.00;96453.63;6083320;23;20003;-63
2023/09/27 03:16:04;;;;;;;35.55;24.98;;;13.70;82.50;;;12.55;100.00;96467.41;6083671;23;20478;-62
2023/09/27 03:18:32;;;;;;;17.27;13.40;;;13.60;82.20;;;12.48;100.00;96467.38;6083522;23;20027;-63
2023/09/27 03:21:01;;;;;;;13.27;10.85;;;13.60;82.10;;;12.44;100.00;96475.84;6081696;23;20029;-63
2023/09/27 03:23:27;;;;;;;10.50;9.40;;;13.60;82.10;;;12.38;100.00;96466.06;6059358;23;20026;-63
2023/09/27 03:25:56;;;;;;;10.15;8.73;;;13.60;81.90;;;12.33;100.00;96457.91;6083806;23;20023;-63
2023/09/27 03:28:22;;;;;;;9.85;8.38;;;13.60;81.70;;;12.26;100.00;96466.59;6082760;23;20017;-63
2023/09/27 03:30:48;;;;;;;10.60;9.20;;;13.50;81.70;;;12.23;100.00;96469.63;6059966;23;20405;-63
2023/09/27 03:33:13;;;;;;;12.05;9.73;;;13.40;82.10;;;12.20;100.00;96464.69;6035202;23;20027;-63
2023/09/27 03:35:40;;;;;;;11.07;9.45;;;13.40;82.30;;;12.16;100.00;96468.72;6083522;23;20015;-62
2023/09/27 03:38:05;;;;;;;16.42;10.63;;;13.40;82.30;;;12.13;100.00;96469.09;6035726;23;20021;-63
2023/09/27 03:40:32;;;;;;;12.80;9.02;;;13.40;82.40;;;12.12;100.00;96472.75;6059103;23;20011;-63
2023/09/27 03:42:57;;;;;;;11.35;9.63;;;13.30;82.40;;;12.09;100.00;96470.50;6060183;23;20507;-63
2023/09/27 03:45:23;;;;;;;11.70;8.00;;;13.30;82.70;;;12.06;100.00;96468.25;6058818;23;20019;-64
2023/09/27 03:47:49;;;;;;;10.52;7.93;;;13.30;82.60;;;12.02;100.00;96472.25;6083410;23;20023;-63
2023/09/27 03:50:15;;;;;;;10.13;7.85;;;13.30;82.60;;;11.98;100.00;96476.25;6083258;23;20483;-65
2023/09/27 03:52:41;;;;;;;15.90;8.13;;;13.20;82.70;;;11.94;100.00;96475.81;6059433;23;20011;-65
2023/09/27 03:55:08;;;;;;;8.82;8.00;;;13.10;82.70;;;11.89;100.00;96474.75;6059259;23;20018;-64
2023/09/27 03:57:34;;;;;;;14.82;11.68;;;13.10;82.60;;;11.85;100.00;96470.88;6036809;23;20022;-65
2023/09/27 04:00:06;;;;;;;17.35;12.80;;;13.10;82.50;;;11.83;100.00;96475.50;6085434;23;20461;-66
2023/09/27 04:02:32;;;;;;;25.90;22.30;;;13.10;82.50;;;11.79;100.00;96477.72;6063994;23;20015;-65
2023/09/27 04:04:58;;;;;;;18.98;16.05;;;13.10;82.70;;;11.78;100.00;96470.81;6062799;23;20357;-65
2023/09/27 04:07:24;;;;;;;18.58;16.30;;;13.10;82.50;;;11.77;100.00;96473.56;6086454;23;20113;-66
2023/09/27 04:09:50;;;;;;;13.77;9.07;;;13.10;82.50;;;11.75;100.00;96475.59;6063819;23;19999;-64
2023/09/27 04:12:15;;;;;;;8.48;7.68;;;13.00;82.40;;;11.75;100.00;96478.22;6062666;23;20014;-65
2023/09/27 04:14:41;;;;;;;9.45;8.10;;;13.00;82.10;;;11.74;100.00;96481.84;6086709;23;20027;-65
2023/09/27 04:17:07;;;;;;;11.35;9.93;;;13.00;81.60;;;11.71;100.00;96477.78;6079305;23;20102;-64
2023/09/27 04:19:33;;;;;;;11.43;9.95;;;12.90;81.50;;;11.66;100.00;96491.53;6038056;23;20102;-65
2023/09/27 04:21:59;;;;;;;14.10;11.23;;;12.90;81.40;;;11.64;100.00;96496.16;6038579;23;20033;-64
2023/09/27 04:24:26;;;;;;;17.23;13.73;;;12.90;81.70;;;11.62;100.00;96494.72;6061069;23;20109;-64
2023/09/27 04:26:53;;;;;;;14.65;11.88;;;12.90;81.90;;;11.57;100.00;96495.28;6039815;23;20023;-66
2023/09/27 04:29:20;;;;;;;12.20;9.95;;;12.90;82.00;;;11.54;100.00;96490.38;6061266;23;20030;-66
2023/09/27 04:31:46;;;;;;;9.57;8.23;;;12.80;82.00;;;11.51;100.00;96497.81;6061795;23;20014;-65
2023/09/27 04:34:11;;;;;;;16.60;8.02;;;12.80;81.90;;;11.49;100.00;96502.44;6038682;23;20497;-65
2023/09/27 04:36:37;;;;;;;8.98;7.20;;;12.80;81.80;;;11.46;100.00;96514.19;6061417;23;20801;-65
2023/09/27 04:39:08;;;;;;;14.05;8.10;;;12.70;81.90;;;11.44;100.00;96507.47;6038457;23;20039;-65
2023/09/27 04:41:34;;;;;;;14.65;8.80;;;12.70;82.00;;;11.40;100.00;96504.38;6038229;23;20053;-66
2023/09/27 04:44:00;;;;;;;18.67;15.02;;;12.70;82.00;;;11.37;100.00;96494.22;6037909;23;20563;-65
2023/09/27 04:46:26;;;;;;;18.48;15.95;;;12.60;81.90;;;11.35;100.00;96496.22;6060951;23;20110;-66
2023/09/27 04:48:51;;;;;;;26.13;21.40;;;12.60;82.10;;;11.33;100.00;96492.97;6038930;23;20006;-66
2023/09/27 04:51:17;;;;;;;28.75;22.98;;;12.60;82.20;;;11.30;100.00;96490.66;6061718;23;20114;-66
2023/09/27 04:53:43;;;;;;;28.30;22.45;;;12.60;82.10;;;11.28;100.00;96497.94;6061342;23;20038;-65
2023/09/27 04:56:11;;;;;;;20.83;16.17;;;12.60;82.20;;;11.30;100.00;96509.91;6061651;23;20177;-66
2023/09/27 04:58:41;;;;;;;13.13;10.45;;;12.60;82.60;;;11.32;100.00;96509.78;6061303;23;20436;-66
2023/09/27 05:01:07;;;;;;;13.30;9.52;;;12.60;82.40;;;11.30;100.00;96509.09;6061867;23;20017;-65
2023/09/27 05:03:32;;;;;;;25.27;14.05;;;12.60;82.20;;;11.29;100.00;96515.38;6037151;23;20027;-66
2023/09/27 05:05:58;;;;;;;14.45;11.60;;;12.60;82.80;;;11.30;100.00;96517.00;6037370;23;20452;-65
2023/09/27 05:08:25;;;;;;;12.23;9.93;;;12.60;82.80;;;11.30;100.00;96519.63;6037294;23;20050;-66
2023/09/27 05:10:52;;;;;;;14.35;9.50;;;12.60;82.80;;;11.27;100.00;96522.63;6061863;23;20673;-65
2023/09/27 05:13:21;;;;;;;47.55;39.47;;;12.60;82.60;;;11.27;100.00;96514.75;6038238;23;20415;-66
2023/09/27 05:15:51;;;;;;;41.88;33.08;;;12.60;82.90;;;11.29;100.00;96510.91;6068669;23;20018;-65
2023/09/27 05:18:16;;;;;;;23.52;19.67;;;12.60;82.80;;;11.28;100.00;96511.09;6063702;23;20506;-65
2023/09/27 05:20:43;;;;;;;15.63;11.30;;;12.60;82.80;;;11.30;100.00;96515.19;6088335;23;20018;-66
2023/09/27 05:23:10;;;;;;;9.00;8.07;;;12.60;82.70;;;11.32;100.00;96517.66;6115272;23;20410;-65
2023/09/27 05:25:36;;;;;;;9.70;7.20;;;12.70;82.60;;;11.33;100.00;96525.38;6115541;23;20453;-66
2023/09/27 05:28:02;;;;;;;9.43;7.25;;;12.70;82.50;;;11.34;100.00;96531.47;6092101;23;20013;-65
2023/09/27 05:30:27;;;;;;;8.60;7.65;;;12.70;82.60;;;11.33;100.00;96543.00;6091027;23;20018;-66
2023/09/27 05:32:53;;;;;;;10.05;7.30;;;12.60;82.70;;;11.31;100.00;96537.06;6115724;23;20026;-65
2023/09/27 05:35:20;;;;;;;8.80;7.90;;;12.60;82.80;;;11.29;100.00;96539.06;6055307;23;20090;-66
2023/09/27 05:37:46;;;;;;;8.20;7.38;;;12.70;82.70;;;11.29;100.00;96533.81;6067782;23;20165;-65
2023/09/27 05:40:11;;;;;;;8.88;7.45;;;12.70;82.60;;;11.31;100.00;96537.06;6117694;23;20014;-65
2023/09/27 05:42:38;;;;;;;8.18;7.30;;;12.70;82.50;;;11.33;100.00;96540.38;6093030;23;20026;-66
2023/09/27 05:45:04;;;;;;;8.75;6.70;;;12.70;82.30;;;11.34;100.00;96536.72;6095985;23;20041;-67
2023/09/27 05:47:31;;;;;;;7.45;6.45;;;12.70;82.40;;;11.37;100.00;96528.47;6078120;23;20006;-65
2023/09/27 05:49:57;;;;;;;7.70;6.90;;;12.80;82.40;;;11.38;100.00;96524.81;6093051;23;20058;-67
2023/09/27 05:52:23;;;;;;;7.18;6.38;;;12.80;82.20;;;11.40;100.00;96530.72;6117159;23;20010;-67
2023/09/27 05:54:51;;;;;;;8.30;6.47;;;12.90;82.30;;;11.44;100.00;96531.16;6093279;23;20057;-65
2023/09/27 05:57:17;;;;;;;8.38;6.53;;;13.00;82.20;;;11.48;100.00;96538.50;6092790;23;20382;-67
2023/09/27 05:59:44;;;;;;;7.32;6.35;;;13.00;82.10;;;11.51;100.00;96538.16;6100159;23;20042;-65
2023/09/27 06:02:16;;;;;;;8.10;6.45;;;13.00;82.30;;;11.55;100.00;96534.16;6074406;23;20033;-65
2023/09/27 06:04:44;;;;;;;8.15;6.50;;;13.10;82.40;;;11.57;100.00;96534.81;6115987;23;20018;-66
2023/09/27 06:07:13;;;;;;;6.97;6.28;;;13.10;82.50;;;11.61;100.00;96541.34;6093553;23;20013;-64
2023/09/27 06:09:41;;;;;;;7.43;6.70;;;13.10;82.60;;;11.66;100.00;96535.50;6088121;23;20007;-65
2023/09/27 06:12:08;;;;;;;8.32;6.65;;;13.20;82.60;;;11.71;100.00;96532.31;6085882;23;20725;-65
2023/09/27 06:14:41;;;;;;;7.53;6.70;;;13.30;82.80;;;11.78;100.00;96541.13;6092306;23;20014;-65
2023/09/27 06:17:07;;;;;;;7.07;6.38;;;13.30;83.10;;;11.82;100.00;96540.59;6083309;23;20038;-65
2023/09/27 06:19:33;;;;;;;7.00;6.40;;;13.40;83.40;;;11.85;100.00;96549.94;6066805;23;20449;-65
2023/09/27 06:21:59;;;;;;;7.53;6.80;;;13.40;83.60;;;11.90;100.00;96552.84;6093649;23;20006;-66
2023/09/27 06:24:28;;;;;;;7.72;6.93;;;13.50;83.40;;;11.94;100.00;96554.91;6116634;23;20018;-65
2023/09/27 06:26:54;;;;;;;6.90;6.22;;;13.60;83.40;;;12.00;100.00;96558.66;6111490;23;20029;-69
2023/09/27 06:29:20;;;;;;;8.00;7.20;;;13.60;83.30;;;12.04;100.00;96554.63;6040942;23;20046;-68
2023/09/27 06:31:52;;;;;;;7.78;6.97;;;13.60;83.40;;;12.09;100.00;96546.16;6039177;23;20109;-67
2023/09/27 06:34:18;;;;;;;6.68;6.07;;;13.80;83.20;;;12.16;100.00;96549.66;6067496;23;20164;-68
2023/09/27 06:36:43;;;;;;;7.57;6.40;;;13.80;83.40;;;12.18;100.00;96535.28;6066590;23;20027;-67
2023/09/27 06:39:12;;;;;;;7.13;6.47;;;14.00;83.40;;;12.33;100.00;96552.88;6066407;23;20034;-68
2023/09/27 06:41:39;;;;;;;6.97;6.28;;;14.10;83.10;;;12.42;100.00;96563.09;6065418;23;20275;-68
2023/09/27 06:44:06;;;;;;;16.63;12.90;;;14.20;83.20;;;12.53;100.00;96561.78;6064906;23;20030;-68
2023/09/27 06:46:33;;;;;;;12.40;11.05;;;14.40;83.00;;;12.64;100.00;96571.81;6067147;23;20668;-68
2023/09/27 06:49:00;;;;;;;8.90;7.85;;;14.60;83.10;;;12.78;100.00;96563.00;6042030;23;20018;-67
2023/09/27 06:51:29;;;;;;;7.38;6.35;;;14.90;82.20;;;12.88;100.00;96563.50;6067822;23;20126;-67
2023/09/27 06:53:55;;;;;;;6.00;5.40;;;15.10;81.20;;;13.04;100.00;96570.31;6041500;23;20468;-68
2023/09/27 06:56:20;;;;;;;7.13;5.15;;;15.30;80.40;;;13.17;100.00;96577.53;6067307;23;20202;-69
2023/09/27 06:58:46;;;;;;;5.72;5.13;;;15.50;80.20;;;13.30;100.00;96582.09;6066868;23;20057;-69
2023/09/27 07:01:13;;;;;;;5.30;4.80;;;15.60;79.80;;;13.43;100.00;96577.72;6067743;23;20085;-69
2023/09/27 07:03:40;;;;;;;6.70;5.10;;;15.60;79.60;;;13.59;100.00;96575.78;6066727;23;20137;-68
2023/09/27 07:06:08;;;;;;;5.72;5.22;;;15.70;79.00;;;13.70;100.00;96575.19;6066738;23;20467;-68
2023/09/27 07:08:34;;;;;;;5.85;4.72;;;15.80;78.40;;;13.82;100.00;96576.28;6064826;23;20046;-68
2023/09/27 07:11:07;;;;;;;6.35;5.20;;;15.90;78.60;;;13.97;100.00;96584.88;6067231;23;20436;-68
2023/09/27 07:13:34;;;;;;;5.63;5.05;;;16.10;78.60;;;14.13;100.00;96582.88;6041143;23;20078;-68
2023/09/27 07:16:01;;;;;;;5.90;4.82;;;16.40;77.90;;;14.29;100.00;96591.28;6067473;23;20010;-69
2023/09/27 07:18:27;;;;;;;9.77;4.88;;;16.60;76.80;;;14.49;100.00;96593.19;6064767;23;20030;-68
2023/09/27 07:20:53;;;;;;;4.90;4.28;;;17.10;76.20;;;14.69;100.00;96589.53;6066841;23;20480;-68
2023/09/27 07:23:20;;;;;;;5.57;4.53;;;17.50;75.00;;;14.92;100.00;96583.03;6088601;23;20105;-68
2023/09/27 07:25:47;;;;;;;5.38;4.88;;;18.00;73.30;;;15.12;100.00;96577.72;6064157;23;20456;-68
2023/09/27 07:28:13;;;;;;;5.03;4.53;;;18.50;71.90;;;15.32;100.00;96573.19;6064772;23;20033;-68
2023/09/27 07:30:39;;;;;;;5.00;4.50;;;18.80;69.80;;;15.59;100.00;96568.69;6064409;23;20022;-68
2023/09/27 07:33:11;;;;;;;5.43;4.93;;;19.40;68.40;;;15.85;100.00;96571.25;6065974;23;20528;-68
2023/09/27 07:35:42;;;;;;;5.78;5.18;;;19.80;66.70;;;16.13;100.00;96570.13;6043942;23;20705;-68
2023/09/27 07:38:10;;;;;;;6.00;4.80;;;20.20;65.50;;;16.45;100.00;96574.41;6067070;23;20088;-68
2023/09/27 07:40:36;;;;;;;6.10;4.57;;;20.80;64.30;;;16.76;100.00;96564.84;6066452;23;20041;-68
2023/09/27 07:43:02;;;;;;;5.43;4.90;;;21.10;62.90;;;17.04;100.00;96575.84;6043456;23;20011;-68
2023/09/27 07:45:31;;;;;;;5.85;5.25;;;21.50;62.60;;;17.33;100.00;96579.66;6068334;23;20014;-68
2023/09/27 07:47:57;;;;;;;6.80;5.32;;;22.00;60.80;;;17.60;100.00;96577.53;6068717;23;20109;-67
2023/09/27 07:50:27;;;;;;;8.15;7.18;;;22.20;60.10;;;17.90;100.00;96582.16;6019027;23;20793;-67
2023/09/27 07:53:00;;;;;;;;;;;22.60;59.20;;;18.17;100.00;96580.00;6067248;23;20085;-67
2023/09/27 07:55:26;;;;;;;6.10;5.35;;;22.80;58.10;;;18.33;100.00;96582.00;6066717;23;20734;-66
2023/09/27 07:57:52;;;;;;;10.15;8.85;;;22.90;58.20;;;18.59;100.00;96586.19;6067713;23;20070;-67
2023/09/27 08:00:19;;;;;;;7.95;6.05;;;23.30;57.60;;;18.83;100.00;96593.22;6068359;23;20022;-67
2023/09/27 08:02:50;;;;;;;8.23;6.07;;;23.40;57.00;;;19.01;100.00;96583.47;6043222;23;20026;-68
2023/09/27 08:05:16;;;;;;;6.80;5.78;;;23.60;55.90;;;19.18;100.00;96592.44;6068379;23;20477;-68
2023/09/27 08:07:45;;;;;;;9.68;5.65;;;23.80;55.60;;;19.39;99.92;96597.19;6066201;23;20019;-68
2023/09/27 08:10:11;;;;;;;7.43;6.03;;;24.10;54.50;;;19.58;98.01;96588.06;6068947;23;20196;-68
2023/09/27 08:12:38;;;;;;;7.25;6.53;;;24.40;54.20;;;19.81;96.06;96600.56;6066162;23;20572;-68
2023/09/27 08:15:05;;;;;;;7.82;6.03;;;24.70;53.40;;;20.03;96.14;96590.06;6063546;23;20029;-67
2023/09/27 08:17:32;;;;;;;6.78;6.07;;;25.00;53.40;;;20.26;94.86;96589.19;6063506;23;20016;-68
2023/09/27 08:19:58;;;;;;;7.50;5.90;;;25.40;52.50;;;20.45;93.47;96581.81;6016380;23;20023;-68
2023/09/27 08:22:24;;;;;;;7.88;6.20;;;25.50;52.30;;;20.72;93.35;96582.84;6016121;23;20015;-67
2023/09/27 08:24:50;;;;;;;6.90;6.20;;;26.00;52.10;;;20.98;91.33;96585.94;6064265;23;20014;-68
2023/09/27 08:27:17;;;;;;;28.50;23.50;;;26.30;50.60;;;21.19;89.40;96589.75;6063690;23;20026;-68
2023/09/27 08:29:42;;;;;;;11.15;9.52;;;26.50;50.10;;;21.45;88.27;96586.44;6068069;23;20010;-70
2023/09/27 08:32:08;;;;;;;11.38;8.68;;;26.70;49.50;;;21.70;86.45;96577.94;6092265;23;20011;-68
2023/09/27 08:34:35;;;;;;;10.98;7.38;;;27.10;48.50;;;21.93;84.83;96584.94;6066759;23;20017;-70
2023/09/27 08:37:01;;;;;;;7.43;6.70;;;27.20;48.20;;;22.15;84.78;96575.06;6091511;23;20069;-70
2023/09/27 08:39:27;;;;;;;10.65;7.50;;;27.50;48.40;;;22.46;84.30;96567.38;6092447;23;20023;-68
2023/09/27 08:41:55;;;;;;;10.65;7.57;;;27.80;48.20;;;22.77;82.28;96563.09;6090814;23;20018;-68
2023/09/27 08:44:24;;;;;;;10.80;7.55;;;28.20;47.20;;;23.09;78.84;96566.63;6090678;23;20018;-71
2023/09/27 08:46:50;;;;;;;8.95;7.80;;;28.60;46.60;;;23.35;79.65;96559.56;6066927;23;20153;-69
2023/09/27 08:49:17;;;;;;;8.77;6.32;;;28.70;45.40;;;23.63;78.49;96550.38;6068036;23;20109;-69
2023/09/27 08:51:43;;;;;;;9.05;7.40;;;29.00;45.10;;;23.88;76.16;96536.25;6066843;23;20019;-68
2023/09/27 08:54:09;;;;;;;8.45;7.60;;;29.10;44.40;;;24.14;74.57;96534.44;6066971;23;20475;-68
2023/09/27 08:56:35;;;;;;;10.30;7.28;;;29.50;43.80;;;24.42;74.14;96535.91;6090771;23;20345;-70
2023/09/27 08:59:01;;;;;;;8.95;7.78;;;29.70;43.80;;;24.71;73.29;96522.78;6067109;23;20086;-68
2023/09/27 09:01:28;;;;;;;17.48;15.10;;;30.10;44.00;;;25.00;72.38;96523.06;6066516;23;20013;-70
2023/09/27 09:03:53;;;;;;;25.33;20.73;;;30.20;43.60;;;25.34;70.98;96509.81;6067608;23;20015;-69
2023/09/27 09:06:19;;;;;;;14.75;10.20;;;30.60;42.70;;;25.61;69.40;96510.31;6066806;23;20090;-70
2023/09/27 09:08:48;;;;;;;11.45;8.38;;;30.80;42.00;;;25.88;67.81;96509.16;6042860;23;20019;-69
2023/09/27 09:11:16;;;;;;;10.93;7.47;;;31.00;41.60;;;26.12;66.80;96504.72;6067765;23;20491;-71
2023/09/27 09:14:03;;;;;;;10.32;7.85;;;30.90;41.50;;;26.31;62.18;96477.09;6090808;23;20446;-71
2023/09/27 09:16:39;;;;;;;9.38;7.22;;;30.70;41.90;;;26.47;62.56;96489.41;6094332;23;20089;-68
2023/09/27 09:19:24;;;;;;;9.57;7.10;;;31.10;41.30;;;26.74;59.95;96468.19;6093640;23;20348;-70
2023/09/27 09:22:03;;;;;;;8.25;7.32;;;31.40;40.70;;;27.10;58.93;96475.97;6069539;23;20014;-68
2023/09/27 09:24:29;;;;;;;10.27;7.38;;;31.90;40.00;;;27.38;61.67;96494.03;6069577;23;20018;-69
2023/09/27 09:27:14;;;;;;;12.07;10.50;;;32.20;39.30;;;27.76;56.59;96456.34;6116526;23;20464;-68
2023/09/27 09:29:46;;;;;;;43.88;37.10;;;32.60;38.60;;;28.01;57.61;96463.31;6092585;23;20569;-68
2023/09/27 09:32:30;;;;;;;12.70;11.40;;;33.10;38.30;;;28.34;55.36;96456.94;6093957;23;20018;-71
2023/09/27 09:34:56;;;;;;;10.00;7.03;;;33.60;37.60;;;28.54;58.04;96465.84;6092315;23;20018;-68
2023/09/27 09:37:29;;;;;;;8.70;6.13;;;33.90;37.10;;;28.84;56.12;96461.84;6092593;23;20021;-68
2023/09/27 09:40:16;;;;;;;8.77;7.22;;;34.50;37.40;;;29.15;52.34;96433.13;6070610;23;20042;-70
2023/09/27 09:42:43;;;;;;;9.18;6.57;;;35.00;34.90;;;29.40;55.97;96461.66;6094135;23;20385;-68
2023/09/27 09:45:12;;;;;;;7.70;6.55;;;35.70;34.60;;;29.75;54.34;96457.47;6044891;23;20041;-69
2023/09/27 09:47:43;;;;;;;9.30;6.72;;;36.60;33.00;;;30.15;51.68;96436.03;6092706;23;20022;-69
2023/09/27 09:50:16;;;;;;;8.07;6.53;;;37.70;31.40;;;30.45;54.26;96454.31;6117177;23;20421;-69
2023/09/27 09:52:49;;;;;;;7.75;6.70;;;38.30;30.40;;;30.78;48.59;96421.53;6070240;23;20010;-72
2023/09/27 09:55:19;;;;;;;9.18;6.25;;;38.70;29.40;;;31.08;52.41;96450.63;6070757;23;20002;-71
2023/09/27 09:57:45;;;;;;;9.57;7.35;;;39.40;28.50;;;31.45;51.16;96450.47;6046487;23;20065;-67
2023/09/27 10:00:12;;;;;;;10.02;7.68;;;40.10;27.70;;;31.72;49.85;96435.91;6074935;23;20022;-71
2023/09/27 10:02:49;;;;;;;10.90;7.85;;;40.80;26.70;;;32.04;45.04;96394.63;6099770;23;20365;-68
2023/09/27 10:05:17;;;;;;;7.75;6.68;;;41.40;26.40;;;32.41;49.09;96425.13;6073089;23;20022;-69
2023/09/27 10:07:43;;;;;;;7.80;7.00;;;41.80;26.20;;;32.71;48.39;96434.22;6073793;23;20006;-69